In Rescue
 
Open Full Screen Window  High Contrast Mode
Wind Gusting 00 knots
05
September 19, 2019 5:11 PM EDT
Weather Information
Wind Direction
  110 °
Wind Speed
  05 kt (6 mph)
Wind Gust
  00 kt (0 mph)
Altimeter
30.09 in
Visibility
10 SM
Temperature
28° C
82° F
Dewpoint
10° C
50° F
Humidity
32%
Sky Condition
Clear
VFR

METAR KHAI 192111Z AUTO 11005KT 10SM CLR 28/10 A3009 RMK AO2 T02770101

FAA Disclaimer: The data displayed is for advisory purposes only and is not to be used for flight planning or operations.